sensor_id;sensor_type;location;lat;lon;timestamp;temperature;humidity
39525;DHT22;25203;50.754;6.978;2023-05-19T00:01:06;6.50;99.90
39525;DHT22;25203;50.754;6.978;2023-05-19T00:03:08;6.50;99.90
39525;DHT22;25203;50.754;6.978;2023-05-19T00:05:10;6.40;99.90
39525;DHT22;25203;50.754;6.978;2023-05-19T00:07:16;6.40;99.90
39525;DHT22;25203;50.754;6.978;2023-05-19T00:09:18;6.40;99.90
39525;DHT22;25203;50.754;6.978;2023-05-19T00:11:19;6.40;99.90
39525;DHT22;25203;50.754;6.978;2023-05-19T00:13:22;6.40;99.90
39525;DHT22;25203;50.754;6.978;2023-05-19T00:15:23;6.40;99.90
39525;DHT22;25203;50.754;6.978;2023-05-19T00:17:23;6.30;99.90
39525;DHT22;25203;50.754;6.978;2023-05-19T00:19:24;6.40;99.90
39525;DHT22;25203;50.754;6.978;2023-05-19T00:21:25;6.30;99.90
39525;DHT22;25203;50.754;6.978;2023-05-19T00:23:26;6.30;99.90
39525;DHT22;25203;50.754;6.978;2023-05-19T00:25:27;6.30;99.90
39525;DHT22;25203;50.754;6.978;2023-05-19T00:27:27;6.30;99.90
39525;DHT22;25203;50.754;6.978;2023-05-19T00:29:28;6.20;99.90
39525;DHT22;25203;50.754;6.978;2023-05-19T00:31:29;6.20;99.90
39525;DHT22;25203;50.754;6.978;2023-05-19T00:33:31;6.20;99.90
39525;DHT22;25203;50.754;6.978;2023-05-19T00:35:33;6.20;99.90
39525;DHT22;25203;50.754;6.978;2023-05-19T00:37:33;6.20;99.90
39525;DHT22;25203;50.754;6.978;2023-05-19T00:39:34;6.20;99.90
39525;DHT22;25203;50.754;6.978;2023-05-19T00:41:35;6.20;99.90
39525;DHT22;25203;50.754;6.978;2023-05-19T00:43:35;6.10;99.90
39525;DHT22;25203;50.754;6.978;2023-05-19T00:45:36;6.10;99.90
39525;DHT22;25203;50.754;6.978;2023-05-19T00:47:37;6.00;99.90
39525;DHT22;25203;50.754;6.978;2023-05-19T00:49:38;6.00;99.90
39525;DHT22;25203;50.754;6.978;2023-05-19T00:51:40;6.00;99.90
39525;DHT22;25203;50.754;6.978;2023-05-19T00:53:40;5.90;99.90
39525;DHT22;25203;50.754;6.978;2023-05-19T00:55:43;5.80;99.90
39525;DHT22;25203;50.754;6.978;2023-05-19T00:57:44;5.80;99.90
39525;DHT22;25203;50.754;6.978;2023-05-19T00:59:47;5.80;99.90
39525;DHT22;25203;50.754;6.978;2023-05-19T01:01:48;5.70;99.90
39525;DHT22;25203;50.754;6.978;2023-05-19T01:03:49;5.70;99.90
39525;DHT22;25203;50.754;6.978;2023-05-19T01:05:50;5.60;99.90
39525;DHT22;25203;50.754;6.978;2023-05-19T01:07:53;5.60;99.90
39525;DHT22;25203;50.754;6.978;2023-05-19T01:09:55;5.60;99.90
39525;DHT22;25203;50.754;6.978;2023-05-19T01:11:57;5.50;99.90
39525;DHT22;25203;50.754;6.978;2023-05-19T01:13:57;5.50;99.90
39525;DHT22;25203;50.754;6.978;2023-05-19T01:16:07;5.50;99.90
39525;DHT22;25203;50.754;6.978;2023-05-19T01:18:15;5.50;99.90
39525;DHT22;25203;50.754;6.978;2023-05-19T01:20:44;5.50;99.90
39525;DHT22;25203;50.754;6.978;2023-05-19T01:23:17;5.40;99.90
39525;DHT22;25203;50.754;6.978;2023-05-19T01:25:29;5.50;99.90
39525;DHT22;25203;50.754;6.978;2023-05-19T01:32:18;5.40;99.90
39525;DHT22;25203;50.754;6.978;2023-05-19T01:34:19;5.40;99.90
39525;DHT22;25203;50.754;6.978;2023-05-19T01:36:24;5.30;99.90
39525;DHT22;25203;50.754;6.978;2023-05-19T01:38:27;5.30;99.90
39525;DHT22;25203;50.754;6.978;2023-05-19T01:40:29;5.20;99.90
39525;DHT22;25203;50.754;6.978;2023-05-19T01:42:31;5.20;99.90
39525;DHT22;25203;50.754;6.978;2023-05-19T01:44:36;5.10;99.90
39525;DHT22;25203;50.754;6.978;2023-05-19T01:46:37;5.10;99.90
39525;DHT22;25203;50.754;6.978;2023-05-19T01:48:39;5.10;99.90
39525;DHT22;25203;50.754;6.978;2023-05-19T01:50:41;5.10;99.90
39525;DHT22;25203;50.754;6.978;2023-05-19T01:52:41;5.00;99.90
39525;DHT22;25203;50.754;6.978;2023-05-19T01:54:42;5.00;99.90
39525;DHT22;25203;50.754;6.978;2023-05-19T01:57:39;5.00;99.90
39525;DHT22;25203;50.754;6.978;2023-05-19T01:59:32;5.00;99.90
39525;DHT22;25203;50.754;6.978;2023-05-19T02:01:52;5.00;99.90
39525;DHT22;25203;50.754;6.978;2023-05-19T02:06:19;5.00;99.90
39525;DHT22;25203;50.754;6.978;2023-05-19T02:10:32;4.90;99.90
39525;DHT22;25203;50.754;6.978;2023-05-19T02:12:39;4.90;99.90
39525;DHT22;25203;50.754;6.978;2023-05-19T02:14:44;4.90;99.90
39525;DHT22;25203;50.754;6.978;2023-05-19T02:16:47;4.90;99.90
39525;DHT22;25203;50.754;6.978;2023-05-19T02:18:49;4.90;99.90
39525;DHT22;25203;50.754;6.978;2023-05-19T02:20:51;4.90;99.90
39525;DHT22;25203;50.754;6.978;2023-05-19T02:22:51;4.80;99.90
39525;DHT22;25203;50.754;6.978;2023-05-19T02:24:52;4.80;99.90
39525;DHT22;25203;50.754;6.978;2023-05-19T02:26:53;4.70;99.90
39525;DHT22;25203;50.754;6.978;2023-05-19T02:28:53;4.70;99.90
39525;DHT22;25203;50.754;6.978;2023-05-19T02:30:54;4.70;99.90
39525;DHT22;25203;50.754;6.978;2023-05-19T02:32:55;4.60;99.90
39525;DHT22;25203;50.754;6.978;2023-05-19T02:34:55;4.60;99.90
39525;DHT22;25203;50.754;6.978;2023-05-19T02:36:56;4.60;99.90
39525;DHT22;25203;50.754;6.978;2023-05-19T02:38:56;4.60;99.90
39525;DHT22;25203;50.754;6.978;2023-05-19T02:40:57;4.60;99.90
39525;DHT22;25203;50.754;6.978;2023-05-19T02:42:58;4.60;99.90
39525;DHT22;25203;50.754;6.978;2023-05-19T02:44:59;4.60;99.90
39525;DHT22;25203;50.754;6.978;2023-05-19T02:46:59;4.60;99.90
39525;DHT22;25203;50.754;6.978;2023-05-19T02:49:01;4.60;99.90
39525;DHT22;25203;50.754;6.978;2023-05-19T02:51:01;4.60;99.90
39525;DHT22;25203;50.754;6.978;2023-05-19T02:53:03;4.50;99.90
39525;DHT22;25203;50.754;6.978;2023-05-19T02:55:03;4.50;99.90
39525;DHT22;25203;50.754;6.978;2023-05-19T02:57:04;4.40;99.90
39525;DHT22;25203;50.754;6.978;2023-05-19T02:59:06;4.40;99.90
39525;DHT22;25203;50.754;6.978;2023-05-19T03:01:06;4.40;99.90
39525;DHT22;25203;50.754;6.978;2023-05-19T03:03:07;4.40;99.90
39525;DHT22;25203;50.754;6.978;2023-05-19T03:05:09;4.30;99.90
39525;DHT22;25203;50.754;6.978;2023-05-19T03:07:10;4.30;99.90
39525;DHT22;25203;50.754;6.978;2023-05-19T03:09:12;4.20;99.90
39525;DHT22;25203;50.754;6.978;2023-05-19T03:11:13;4.20;99.90
39525;DHT22;25203;50.754;6.978;2023-05-19T03:13:14;4.20;99.90
39525;DHT22;25203;50.754;6.978;2023-05-19T03:15:16;4.20;99.90
39525;DHT22;25203;50.754;6.978;2023-05-19T03:17:18;4.20;99.90
39525;DHT22;25203;50.754;6.978;2023-05-19T03:19:18;4.10;99.90
39525;DHT22;25203;50.754;6.978;2023-05-19T03:21:19;4.10;99.90
39525;DHT22;25203;50.754;6.978;2023-05-19T03:23:22;4.10;99.90
39525;DHT22;25203;50.754;6.978;2023-05-19T03:25:23;4.10;99.90
39525;DHT22;25203;50.754;6.978;2023-05-19T03:27:23;4.00;99.90
39525;DHT22;25203;50.754;6.978;2023-05-19T03:29:24;4.00;99.90
39525;DHT22;25203;50.754;6.978;2023-05-19T03:31:24;4.00;99.90
39525;DHT22;25203;50.754;6.978;2023-05-19T03:33:26;4.00;99.90
39525;DHT22;25203;50.754;6.978;2023-05-19T03:35:28;4.00;99.90
39525;DHT22;25203;50.754;6.978;2023-05-19T03:37:29;4.00;99.90
39525;DHT22;25203;50.754;6.978;2023-05-19T03:39:30;4.00;99.90
39525;DHT22;25203;50.754;6.978;2023-05-19T03:41:30;4.00;99.90
39525;DHT22;25203;50.754;6.978;2023-05-19T03:43:31;3.90;99.90
39525;DHT22;25203;50.754;6.978;2023-05-19T03:45:32;4.00;99.90
39525;DHT22;25203;50.754;6.978;2023-05-19T03:47:32;3.90;99.90
39525;DHT22;25203;50.754;6.978;2023-05-19T03:49:33;4.00;99.90
39525;DHT22;25203;50.754;6.978;2023-05-19T03:51:33;3.90;99.90
39525;DHT22;25203;50.754;6.978;2023-05-19T03:53:35;3.90;99.90
39525;DHT22;25203;50.754;6.978;2023-05-19T03:55:37;3.90;99.90
39525;DHT22;25203;50.754;6.978;2023-05-19T03:57:38;3.90;99.90
39525;DHT22;25203;50.754;6.978;2023-05-19T03:59:39;3.90;99.90
39525;DHT22;25203;50.754;6.978;2023-05-19T04:01:40;3.90;99.90
39525;DHT22;25203;50.754;6.978;2023-05-19T04:03:41;3.90;99.90
39525;DHT22;25203;50.754;6.978;2023-05-19T04:05:41;3.90;99.90
39525;DHT22;25203;50.754;6.978;2023-05-19T04:07:42;3.80;99.90
39525;DHT22;25203;50.754;6.978;2023-05-19T04:09:44;3.90;99.90
39525;DHT22;25203;50.754;6.978;2023-05-19T04:11:45;3.90;99.90
39525;DHT22;25203;50.754;6.978;2023-05-19T04:13:45;3.90;99.90
39525;DHT22;25203;50.754;6.978;2023-05-19T04:15:46;3.90;99.90
39525;DHT22;25203;50.754;6.978;2023-05-19T04:17:47;3.90;99.90
39525;DHT22;25203;50.754;6.978;2023-05-19T04:19:47;4.00;99.90
39525;DHT22;25203;50.754;6.978;2023-05-19T04:21:48;4.00;99.90
39525;DHT22;25203;50.754;6.978;2023-05-19T04:23:48;4.00;99.90
39525;DHT22;25203;50.754;6.978;2023-05-19T04:25:49;4.00;99.90
39525;DHT22;25203;50.754;6.978;2023-05-19T04:27:50;4.10;99.90
39525;DHT22;25203;50.754;6.978;2023-05-19T04:29:52;4.10;99.90
39525;DHT22;25203;50.754;6.978;2023-05-19T04:31:54;4.10;99.90
39525;DHT22;25203;50.754;6.978;2023-05-19T04:33:55;4.30;99.90
39525;DHT22;25203;50.754;6.978;2023-05-19T04:35:55;4.30;99.90
39525;DHT22;25203;50.754;6.978;2023-05-19T04:37:57;4.40;99.90
39525;DHT22;25203;50.754;6.978;2023-05-19T04:39:58;4.50;99.90
39525;DHT22;25203;50.754;6.978;2023-05-19T04:41:58;4.60;99.90
39525;DHT22;25203;50.754;6.978;2023-05-19T04:43:59;4.60;99.90
39525;DHT22;25203;50.754;6.978;2023-05-19T04:46:00;4.60;99.90
39525;DHT22;25203;50.754;6.978;2023-05-19T04:48:01;4.70;99.90
39525;DHT22;25203;50.754;6.978;2023-05-19T04:50:02;4.70;99.90
39525;DHT22;25203;50.754;6.978;2023-05-19T04:52:08;4.80;99.90
39525;DHT22;25203;50.754;6.978;2023-05-19T04:54:10;4.90;99.90
39525;DHT22;25203;50.754;6.978;2023-05-19T04:56:10;5.00;99.90
39525;DHT22;25203;50.754;6.978;2023-05-19T04:58:14;5.10;99.90
39525;DHT22;25203;50.754;6.978;2023-05-19T05:00:16;5.20;99.90
39525;DHT22;25203;50.754;6.978;2023-05-19T05:02:18;5.30;99.90
39525;DHT22;25203;50.754;6.978;2023-05-19T05:04:18;5.40;99.90
39525;DHT22;25203;50.754;6.978;2023-05-19T05:06:20;5.50;99.90
39525;DHT22;25203;50.754;6.978;2023-05-19T05:08:21;5.60;99.90
39525;DHT22;25203;50.754;6.978;2023-05-19T05:10:22;5.70;99.90
39525;DHT22;25203;50.754;6.978;2023-05-19T05:12:23;5.90;99.90
39525;DHT22;25203;50.754;6.978;2023-05-19T05:14:24;6.00;99.90
39525;DHT22;25203;50.754;6.978;2023-05-19T05:16:25;6.10;99.90
39525;DHT22;25203;50.754;6.978;2023-05-19T05:18:26;6.20;99.90
39525;DHT22;25203;50.754;6.978;2023-05-19T05:20:27;6.30;99.90
39525;DHT22;25203;50.754;6.978;2023-05-19T05:22:28;6.40;99.90
39525;DHT22;25203;50.754;6.978;2023-05-19T05:24:29;6.60;99.90
39525;DHT22;25203;50.754;6.978;2023-05-19T05:26:32;6.70;99.90
39525;DHT22;25203;50.754;6.978;2023-05-19T05:28:33;6.80;99.90
39525;DHT22;25203;50.754;6.978;2023-05-19T05:30:33;7.00;99.90
39525;DHT22;25203;50.754;6.978;2023-05-19T05:32:34;7.10;99.90
39525;DHT22;25203;50.754;6.978;2023-05-19T05:34:35;7.30;99.90
39525;DHT22;25203;50.754;6.978;2023-05-19T05:36:37;7.40;99.90
39525;DHT22;25203;50.754;6.978;2023-05-19T05:38:38;7.50;99.90
39525;DHT22;25203;50.754;6.978;2023-05-19T05:40:38;7.70;99.90
39525;DHT22;25203;50.754;6.978;2023-05-19T05:42:39;7.80;99.90
39525;DHT22;25203;50.754;6.978;2023-05-19T05:44:39;8.00;99.90
39525;DHT22;25203;50.754;6.978;2023-05-19T05:46:40;8.10;99.90
39525;DHT22;25203;50.754;6.978;2023-05-19T05:48:41;8.40;99.90
39525;DHT22;25203;50.754;6.978;2023-05-19T05:50:43;8.50;99.90
39525;DHT22;25203;50.754;6.978;2023-05-19T05:52:47;8.60;99.90
39525;DHT22;25203;50.754;6.978;2023-05-19T05:54:50;8.80;99.90
39525;DHT22;25203;50.754;6.978;2023-05-19T05:56:51;9.00;99.90
39525;DHT22;25203;50.754;6.978;2023-05-19T05:58:51;9.20;99.90
39525;DHT22;25203;50.754;6.978;2023-05-19T06:00:53;9.30;99.90
39525;DHT22;25203;50.754;6.978;2023-05-19T06:02:56;9.60;99.90
39525;DHT22;25203;50.754;6.978;2023-05-19T06:04:58;9.80;99.90
39525;DHT22;25203;50.754;6.978;2023-05-19T06:06:58;10.00;99.90
39525;DHT22;25203;50.754;6.978;2023-05-19T06:09:01;10.30;99.90
39525;DHT22;25203;50.754;6.978;2023-05-19T06:11:01;10.50;99.90
39525;DHT22;25203;50.754;6.978;2023-05-19T06:13:08;10.70;99.90
39525;DHT22;25203;50.754;6.978;2023-05-19T06:15:09;10.90;99.90
39525;DHT22;25203;50.754;6.978;2023-05-19T06:17:10;11.00;99.90
39525;DHT22;25203;50.754;6.978;2023-05-19T06:19:10;11.20;99.90
39525;DHT22;25203;50.754;6.978;2023-05-19T06:21:11;11.30;99.90
39525;DHT22;25203;50.754;6.978;2023-05-19T06:23:12;11.50;99.90
39525;DHT22;25203;50.754;6.978;2023-05-19T06:25:13;11.60;99.90
39525;DHT22;25203;50.754;6.978;2023-05-19T06:27:13;11.70;99.90
39525;DHT22;25203;50.754;6.978;2023-05-19T06:29:14;11.90;99.90
39525;DHT22;25203;50.754;6.978;2023-05-19T06:31:15;12.00;99.90
39525;DHT22;25203;50.754;6.978;2023-05-19T06:33:15;12.00;99.90
39525;DHT22;25203;50.754;6.978;2023-05-19T06:35:16;12.10;99.90
39525;DHT22;25203;50.754;6.978;2023-05-19T06:37:16;12.20;99.90
39525;DHT22;25203;50.754;6.978;2023-05-19T06:39:19;12.40;99.90
39525;DHT22;25203;50.754;6.978;2023-05-19T06:41:19;12.50;99.90
39525;DHT22;25203;50.754;6.978;2023-05-19T06:43:21;12.70;99.90
39525;DHT22;25203;50.754;6.978;2023-05-19T06:45:22;12.90;99.90
39525;DHT22;25203;50.754;6.978;2023-05-19T06:47:23;12.90;99.90
39525;DHT22;25203;50.754;6.978;2023-05-19T06:49:24;13.00;99.90
39525;DHT22;25203;50.754;6.978;2023-05-19T06:51:28;13.20;99.90
39525;DHT22;25203;50.754;6.978;2023-05-19T06:53:29;13.40;99.20
39525;DHT22;25203;50.754;6.978;2023-05-19T06:55:30;13.60;99.00
39525;DHT22;25203;50.754;6.978;2023-05-19T06:57:31;13.70;98.70
39525;DHT22;25203;50.754;6.978;2023-05-19T06:59:32;13.60;98.80
39525;DHT22;25203;50.754;6.978;2023-05-19T07:01:32;13.70;98.70
39525;DHT22;25203;50.754;6.978;2023-05-19T07:03:33;13.80;98.10
39525;DHT22;25203;50.754;6.978;2023-05-19T07:05:34;13.80;97.90
39525;DHT22;25203;50.754;6.978;2023-05-19T07:07:35;13.80;97.90
39525;DHT22;25203;50.754;6.978;2023-05-19T07:09:35;14.00;97.40
39525;DHT22;25203;50.754;6.978;2023-05-19T07:11:36;14.10;97.50
39525;DHT22;25203;50.754;6.978;2023-05-19T07:13:36;14.20;97.30
39525;DHT22;25203;50.754;6.978;2023-05-19T07:15:37;14.20;97.60
39525;DHT22;25203;50.754;6.978;2023-05-19T07:17:37;14.30;97.30
39525;DHT22;25203;50.754;6.978;2023-05-19T07:19:38;14.40;96.10
39525;DHT22;25203;50.754;6.978;2023-05-19T07:21:39;14.40;96.30
39525;DHT22;25203;50.754;6.978;2023-05-19T07:23:39;14.60;96.20
39525;DHT22;25203;50.754;6.978;2023-05-19T07:25:40;14.80;95.90
39525;DHT22;25203;50.754;6.978;2023-05-19T07:27:40;15.00;96.70
39525;DHT22;25203;50.754;6.978;2023-05-19T07:29:41;15.10;95.50
39525;DHT22;25203;50.754;6.978;2023-05-19T07:31:42;15.20;95.30
39525;DHT22;25203;50.754;6.978;2023-05-19T07:33:42;15.30;94.70
39525;DHT22;25203;50.754;6.978;2023-05-19T07:35:43;15.50;94.90
39525;DHT22;25203;50.754;6.978;2023-05-19T07:37:44;15.60;94.60
39525;DHT22;25203;50.754;6.978;2023-05-19T07:39:45;15.70;94.20
39525;DHT22;25203;50.754;6.978;2023-05-19T07:41:46;15.90;94.50
39525;DHT22;25203;50.754;6.978;2023-05-19T07:43:52;15.90;93.80
39525;DHT22;25203;50.754;6.978;2023-05-19T07:45:52;16.10;93.10
39525;DHT22;25203;50.754;6.978;2023-05-19T07:47:55;16.30;92.20
39525;DHT22;25203;50.754;6.978;2023-05-19T07:49:55;16.40;92.20
39525;DHT22;25203;50.754;6.978;2023-05-19T07:51:56;16.60;91.90
39525;DHT22;25203;50.754;6.978;2023-05-19T07:53:57;16.80;91.00
39525;DHT22;25203;50.754;6.978;2023-05-19T07:55:57;17.00;91.80
39525;DHT22;25203;50.754;6.978;2023-05-19T07:57:58;17.10;90.10
39525;DHT22;25203;50.754;6.978;2023-05-19T07:59:58;16.90;88.10
39525;DHT22;25203;50.754;6.978;2023-05-19T08:01:59;17.10;90.90
39525;DHT22;25203;50.754;6.978;2023-05-19T08:04:00;17.80;90.70
39525;DHT22;25203;50.754;6.978;2023-05-19T08:06:00;18.50;86.60
39525;DHT22;25203;50.754;6.978;2023-05-19T08:08:01;19.80;84.00
39525;DHT22;25203;50.754;6.978;2023-05-19T08:10:02;21.20;78.50
39525;DHT22;25203;50.754;6.978;2023-05-19T08:12:03;23.10;71.30
39525;DHT22;25203;50.754;6.978;2023-05-19T08:14:04;25.10;63.60
39525;DHT22;25203;50.754;6.978;2023-05-19T08:16:05;26.70;59.70
39525;DHT22;25203;50.754;6.978;2023-05-19T08:18:05;27.70;54.60
39525;DHT22;25203;50.754;6.978;2023-05-19T08:20:06;28.20;54.10
39525;DHT22;25203;50.754;6.978;2023-05-19T08:22:09;29.50;52.60
39525;DHT22;25203;50.754;6.978;2023-05-19T08:24:10;30.10;50.60
39525;DHT22;25203;50.754;6.978;2023-05-19T08:26:10;30.40;50.00
39525;DHT22;25203;50.754;6.978;2023-05-19T08:28:11;30.50;49.20
39525;DHT22;25203;50.754;6.978;2023-05-19T08:30:12;30.70;49.10
39525;DHT22;25203;50.754;6.978;2023-05-19T08:32:13;31.30;48.40
39525;DHT22;25203;50.754;6.978;2023-05-19T08:34:13;31.60;47.50
39525;DHT22;25203;50.754;6.978;2023-05-19T08:36:14;31.80;47.60
39525;DHT22;25203;50.754;6.978;2023-05-19T08:38:15;31.70;46.80
39525;DHT22;25203;50.754;6.978;2023-05-19T08:40:17;31.00;47.10
39525;DHT22;25203;50.754;6.978;2023-05-19T08:42:17;30.50;47.30
39525;DHT22;25203;50.754;6.978;2023-05-19T08:44:18;30.70;47.60
39525;DHT22;25203;50.754;6.978;2023-05-19T08:46:20;31.50;47.50
39525;DHT22;25203;50.754;6.978;2023-05-19T08:48:23;32.40;46.50
39525;DHT22;25203;50.754;6.978;2023-05-19T08:50:28;32.90;46.30
39525;DHT22;25203;50.754;6.978;2023-05-19T08:52:49;33.20;45.50
39525;DHT22;25203;50.754;6.978;2023-05-19T08:55:12;33.80;44.90
39525;DHT22;25203;50.754;6.978;2023-05-19T08:57:14;33.70;45.10
39525;DHT22;25203;50.754;6.978;2023-05-19T08:59:16;33.50;44.70
39525;DHT22;25203;50.754;6.978;2023-05-19T09:01:18;33.70;45.10
39525;DHT22;25203;50.754;6.978;2023-05-19T09:03:19;33.30;44.50
39525;DHT22;25203;50.754;6.978;2023-05-19T09:05:20;33.10;44.60
39525;DHT22;25203;50.754;6.978;2023-05-19T09:07:22;33.80;44.20
39525;DHT22;25203;50.754;6.978;2023-05-19T09:09:24;33.80;43.90
39525;DHT22;25203;50.754;6.978;2023-05-19T09:11:25;33.90;43.50
39525;DHT22;25203;50.754;6.978;2023-05-19T09:13:27;34.20;43.40
39525;DHT22;25203;50.754;6.978;2023-05-19T09:15:27;34.80;43.50
39525;DHT22;25203;50.754;6.978;2023-05-19T09:17:28;34.30;44.20
39525;DHT22;25203;50.754;6.978;2023-05-19T09:19:29;34.30;43.50
39525;DHT22;25203;50.754;6.978;2023-05-19T09:21:30;34.10;44.40
39525;DHT22;25203;50.754;6.978;2023-05-19T09:23:31;34.40;43.20
39525;DHT22;25203;50.754;6.978;2023-05-19T09:25:33;34.40;42.90
39525;DHT22;25203;50.754;6.978;2023-05-19T09:27:34;34.40;42.40
39525;DHT22;25203;50.754;6.978;2023-05-19T09:29:34;34.10;42.70
39525;DHT22;25203;50.754;6.978;2023-05-19T09:31:35;33.80;42.60
39525;DHT22;25203;50.754;6.978;2023-05-19T09:33:36;34.00;43.00
39525;DHT22;25203;50.754;6.978;2023-05-19T09:35:37;34.10;43.00
39525;DHT22;25203;50.754;6.978;2023-05-19T09:37:39;34.30;42.60
39525;DHT22;25203;50.754;6.978;2023-05-19T09:39:39;34.10;42.20
39525;DHT22;25203;50.754;6.978;2023-05-19T09:41:40;34.10;42.70
39525;DHT22;25203;50.754;6.978;2023-05-19T09:43:41;33.10;43.40
39525;DHT22;25203;50.754;6.978;2023-05-19T09:45:42;33.70;43.20
39525;DHT22;25203;50.754;6.978;2023-05-19T09:47:42;34.00;43.10
39525;DHT22;25203;50.754;6.978;2023-05-19T09:49:46;34.40;42.70
39525;DHT22;25203;50.754;6.978;2023-05-19T09:51:57;34.70;42.60
39525;DHT22;25203;50.754;6.978;2023-05-19T09:53:58;34.80;42.40
39525;DHT22;25203;50.754;6.978;2023-05-19T09:56:00;34.70;42.30
39525;DHT22;25203;50.754;6.978;2023-05-19T09:58:01;33.80;42.70
39525;DHT22;25203;50.754;6.978;2023-05-19T10:00:05;32.30;42.30
39525;DHT22;25203;50.754;6.978;2023-05-19T10:02:18;30.50;44.10
39525;DHT22;25203;50.754;6.978;2023-05-19T10:04:21;28.80;46.50
39525;DHT22;25203;50.754;6.978;2023-05-19T10:06:23;28.70;46.50
39525;DHT22;25203;50.754;6.978;2023-05-19T10:08:25;29.50;45.40
39525;DHT22;25203;50.754;6.978;2023-05-19T10:10:27;30.30;45.20
39525;DHT22;25203;50.754;6.978;2023-05-19T10:12:28;30.90;44.80
39525;DHT22;25203;50.754;6.978;2023-05-19T10:14:30;31.90;44.20
39525;DHT22;25203;50.754;6.978;2023-05-19T10:16:31;32.30;43.60
39525;DHT22;25203;50.754;6.978;2023-05-19T10:18:32;31.90;43.80
39525;DHT22;25203;50.754;6.978;2023-05-19T10:20:34;31.90;44.30
39525;DHT22;25203;50.754;6.978;2023-05-19T10:22:36;32.10;43.80
39525;DHT22;25203;50.754;6.978;2023-05-19T10:24:37;32.60;44.40
39525;DHT22;25203;50.754;6.978;2023-05-19T10:26:40;33.40;43.00
39525;DHT22;25203;50.754;6.978;2023-05-19T10:28:43;33.70;42.90
39525;DHT22;25203;50.754;6.978;2023-05-19T10:30:47;34.40;42.40
39525;DHT22;25203;50.754;6.978;2023-05-19T10:32:49;34.50;42.50
39525;DHT22;25203;50.754;6.978;2023-05-19T10:39:50;34.00;42.70
39525;DHT22;25203;50.754;6.978;2023-05-19T10:45:56;34.50;43.00
39525;DHT22;25203;50.754;6.978;2023-05-19T10:47:57;33.80;43.40
39525;DHT22;25203;50.754;6.978;2023-05-19T10:49:59;33.90;43.20
39525;DHT22;25203;50.754;6.978;2023-05-19T10:52:00;34.10;42.80
39525;DHT22;25203;50.754;6.978;2023-05-19T10:54:01;35.00;43.00
39525;DHT22;25203;50.754;6.978;2023-05-19T10:56:02;35.10;41.70
39525;DHT22;25203;50.754;6.978;2023-05-19T10:58:03;34.70;41.50
39525;DHT22;25203;50.754;6.978;2023-05-19T11:00:27;34.40;41.50
39525;DHT22;25203;50.754;6.978;2023-05-19T11:02:42;33.10;42.30
39525;DHT22;25203;50.754;6.978;2023-05-19T11:04:49;32.60;42.90
39525;DHT22;25203;50.754;6.978;2023-05-19T11:06:50;32.50;44.00
39525;DHT22;25203;50.754;6.978;2023-05-19T11:09:02;32.00;43.60
39525;DHT22;25203;50.754;6.978;2023-05-19T11:11:16;32.10;44.00
39525;DHT22;25203;50.754;6.978;2023-05-19T11:13:19;32.80;43.00
39525;DHT22;25203;50.754;6.978;2023-05-19T11:15:24;33.00;42.50
39525;DHT22;25203;50.754;6.978;2023-05-19T11:17:25;33.00;42.40
39525;DHT22;25203;50.754;6.978;2023-05-19T11:19:36;33.20;41.90
39525;DHT22;25203;50.754;6.978;2023-05-19T11:21:49;33.30;42.30
39525;DHT22;25203;50.754;6.978;2023-05-19T11:23:51;33.60;42.40
39525;DHT22;25203;50.754;6.978;2023-05-19T11:25:52;32.70;42.50
39525;DHT22;25203;50.754;6.978;2023-05-19T11:27:53;32.30;43.30
39525;DHT22;25203;50.754;6.978;2023-05-19T11:30:16;31.80;43.10
39525;DHT22;25203;50.754;6.978;2023-05-19T11:32:24;31.80;44.10
39525;DHT22;25203;50.754;6.978;2023-05-19T11:34:25;32.50;44.00
39525;DHT22;25203;50.754;6.978;2023-05-19T11:36:27;32.80;43.20
39525;DHT22;25203;50.754;6.978;2023-05-19T11:38:28;32.80;44.10
39525;DHT22;25203;50.754;6.978;2023-05-19T11:40:32;32.60;42.70
39525;DHT22;25203;50.754;6.978;2023-05-19T11:42:33;31.60;43.20
39525;DHT22;25203;50.754;6.978;2023-05-19T11:44:34;30.70;44.00
39525;DHT22;25203;50.754;6.978;2023-05-19T11:46:34;30.40;43.40
39525;DHT22;25203;50.754;6.978;2023-05-19T11:48:35;29.90;43.80
39525;DHT22;25203;50.754;6.978;2023-05-19T11:50:36;29.50;44.00
39525;DHT22;25203;50.754;6.978;2023-05-19T11:52:43;29.90;43.50
39525;DHT22;25203;50.754;6.978;2023-05-19T11:54:47;30.50;44.00
39525;DHT22;25203;50.754;6.978;2023-05-19T11:56:48;31.10;43.70
39525;DHT22;25203;50.754;6.978;2023-05-19T11:58:51;31.60;42.40
39525;DHT22;25203;50.754;6.978;2023-05-19T12:00:52;31.50;42.90
39525;DHT22;25203;50.754;6.978;2023-05-19T12:02:53;31.20;42.90
39525;DHT22;25203;50.754;6.978;2023-05-19T12:04:54;31.70;43.30
39525;DHT22;25203;50.754;6.978;2023-05-19T12:06:54;31.40;43.20
39525;DHT22;25203;50.754;6.978;2023-05-19T12:08:55;30.90;43.90
39525;DHT22;25203;50.754;6.978;2023-05-19T12:10:56;30.70;43.00
39525;DHT22;25203;50.754;6.978;2023-05-19T12:12:57;30.50;42.50
39525;DHT22;25203;50.754;6.978;2023-05-19T12:15:01;30.60;43.60
39525;DHT22;25203;50.754;6.978;2023-05-19T12:17:13;31.00;43.70
39525;DHT22;25203;50.754;6.978;2023-05-19T12:19:14;30.80;43.10
39525;DHT22;25203;50.754;6.978;2023-05-19T12:21:14;29.80;43.20
39525;DHT22;25203;50.754;6.978;2023-05-19T12:23:15;29.20;43.20
39525;DHT22;25203;50.754;6.978;2023-05-19T12:25:17;28.20;44.20
39525;DHT22;25203;50.754;6.978;2023-05-19T12:27:19;27.70;44.70
39525;DHT22;25203;50.754;6.978;2023-05-19T12:29:20;27.20;45.10
39525;DHT22;25203;50.754;6.978;2023-05-19T12:31:20;27.30;45.20
39525;DHT22;25203;50.754;6.978;2023-05-19T12:33:23;27.30;44.50
39525;DHT22;25203;50.754;6.978;2023-05-19T12:35:28;27.00;44.80
39525;DHT22;25203;50.754;6.978;2023-05-19T12:37:29;26.70;45.10
39525;DHT22;25203;50.754;6.978;2023-05-19T12:39:30;26.60;45.20
39525;DHT22;25203;50.754;6.978;2023-05-19T12:41:30;26.40;45.10
39525;DHT22;25203;50.754;6.978;2023-05-19T12:43:31;26.20;44.80
39525;DHT22;25203;50.754;6.978;2023-05-19T12:45:33;25.70;45.80
39525;DHT22;25203;50.754;6.978;2023-05-19T12:47:35;25.50;46.70
39525;DHT22;25203;50.754;6.978;2023-05-19T12:49:35;25.30;45.70
39525;DHT22;25203;50.754;6.978;2023-05-19T12:51:36;25.50;45.30
39525;DHT22;25203;50.754;6.978;2023-05-19T12:53:36;25.70;45.70
39525;DHT22;25203;50.754;6.978;2023-05-19T12:55:41;25.60;46.60
39525;DHT22;25203;50.754;6.978;2023-05-19T12:57:46;25.40;46.10
39525;DHT22;25203;50.754;6.978;2023-05-19T12:59:47;25.10;47.00
39525;DHT22;25203;50.754;6.978;2023-05-19T13:01:56;24.60;47.00
39525;DHT22;25203;50.754;6.978;2023-05-19T13:03:57;24.30;48.40
39525;DHT22;25203;50.754;6.978;2023-05-19T13:05:57;24.10;47.30
39525;DHT22;25203;50.754;6.978;2023-05-19T13:08:01;23.90;47.10
39525;DHT22;25203;50.754;6.978;2023-05-19T13:10:04;24.20;47.70
39525;DHT22;25203;50.754;6.978;2023-05-19T13:12:06;24.50;47.10
39525;DHT22;25203;50.754;6.978;2023-05-19T13:14:06;24.60;46.80
39525;DHT22;25203;50.754;6.978;2023-05-19T13:16:07;24.60;46.10